Bowie, Texas
Current Conditions -  °F | °C
As of 4:15 PM on Friday 24 Oct 2014 (Local Time) from K0F2 Reporting Station
Clear Clear  
Wind Chill: 85°   Ceiling: Unl
Heat Index: 85°   Visibility: 10mi
Dew Point: 60°   Wind: 7mph
Humidity: 43%   Direction: 200°SSW
Pressure: 30.06"   Gusts: NA
Location:  33.56°N, 97.85°W
Report Text: K0F2 242115Z AUTO 20006KT 10SM CLR 29/15 A3006 RMK AO2 T02930154
Loading
Personal Weather Stations






























Interactive Weather Map
Tropical Storm Tracking
New forecast layout! Learn more

10-Day Weather Forecast

Advertisements
Track Severe Weather on mobile